Time;durP1;ratioP1;P1;durP2;ratioP2;P2;SDS_P1;SDS_P2;PMS_P1;PMS_P2;Temp;Humidity;BMP_temperature;BMP_pressure;BME280_temperature;BME280_humidity;BME280_pressure;Samples;Min_cycle;Max_cycle;Signal;HPM_P1;HPM_P2
2023/07/19 00:00:52;;;;;;;4.77;2.40;;;17.90;65.80;;;;;;5033897;28;20933;-58
2023/07/19 00:03:20;;;;;;;4.20;2.50;;;17.90;65.20;;;;;;5036120;28;20509;-59
2023/07/19 00:05:48;;;;;;;3.50;2.43;;;17.90;65.30;;;;;;5034531;28;20957;-58
2023/07/19 00:08:15;;;;;;;5.00;2.57;;;17.90;65.40;;;;;;5034064;28;20449;-59
2023/07/19 00:10:43;;;;;;;2.40;2.20;;;17.90;65.40;;;;;;5033678;28;20992;-59
2023/07/19 00:13:10;;;;;;;3.47;2.10;;;17.90;65.50;;;;;;5033481;28;20472;-58
2023/07/19 00:15:36;;;;;;;3.83;1.93;;;17.90;65.50;;;;;;5033288;28;20452;-58
2023/07/19 00:18:03;;;;;;;4.13;2.10;;;17.90;65.50;;;;;;5033374;28;20487;-59
2023/07/19 00:20:30;;;;;;;3.70;2.20;;;17.90;65.50;;;;;;5033297;28;20468;-58
2023/07/19 00:22:57;;;;;;;3.80;2.87;;;17.90;65.60;;;;;;5033266;28;20470;-59
2023/07/19 00:25:24;;;;;;;6.03;2.73;;;17.90;65.70;;;;;;5033278;28;20444;-57
2023/07/19 00:27:52;;;;;;;4.50;2.93;;;17.90;65.80;;;;;;5035709;28;20450;-59
2023/07/19 00:30:19;;;;;;;3.43;2.07;;;17.90;65.90;;;;;;5037510;28;20453;-59
2023/07/19 00:32:45;;;;;;;3.13;2.40;;;17.90;65.90;;;;;;5037677;28;20505;-58
2023/07/19 00:35:12;;;;;;;5.50;2.53;;;17.90;65.80;;;;;;5037398;28;20446;-59
2023/07/19 00:37:39;;;;;;;3.93;2.73;;;17.90;65.80;;;;;;5037223;28;20854;-59
2023/07/19 00:40:07;;;;;;;4.60;3.80;;;17.90;65.80;;;;;;5037200;28;20450;-59
2023/07/19 00:42:34;;;;;;;5.20;2.20;;;17.90;65.90;;;;;;5037108;28;20467;-59
2023/07/19 00:45:02;;;;;;;3.33;2.00;;;17.90;66.00;;;;;;5037016;28;20444;-59
2023/07/19 00:47:29;;;;;;;5.00;2.10;;;17.80;65.90;;;;;;5036563;28;20451;-59
2023/07/19 00:49:56;;;;;;;3.57;2.17;;;17.80;66.00;;;;;;5037057;28;20518;-59
2023/07/19 00:52:23;;;;;;;3.20;1.80;;;17.80;66.00;;;;;;5036609;28;21018;-58
2023/07/19 00:54:50;;;;;;;2.37;2.17;;;17.80;66.00;;;;;;5037158;28;20442;-59
2023/07/19 00:57:17;;;;;;;3.27;2.20;;;17.80;66.10;;;;;;5038265;28;20483;-59
2023/07/19 00:59:45;;;;;;;2.50;2.13;;;17.80;66.20;;;;;;5037129;28;20458;-59
2023/07/19 01:02:13;;;;;;;3.03;2.10;;;17.70;66.20;;;;;;5037111;28;21006;-59
2023/07/19 01:04:40;;;;;;;4.40;2.30;;;17.70;66.30;;;;;;5037624;28;20500;-58
2023/07/19 01:07:07;;;;;;;5.27;2.43;;;17.70;66.50;;;;;;5037411;28;20455;-59
2023/07/19 01:09:34;;;;;;;4.13;3.00;;;17.60;66.50;;;;;;5038054;28;20452;-59
2023/07/19 01:12:02;;;;;;;2.73;2.20;;;17.60;66.70;;;;;;5037824;28;20467;-59
2023/07/19 01:14:29;;;;;;;6.77;2.17;;;17.60;66.70;;;;;;5037640;28;20446;-58
2023/07/19 01:16:55;;;;;;;2.00;1.67;;;17.60;66.90;;;;;;5037200;28;21017;-58
2023/07/19 01:19:24;;;;;;;3.70;2.17;;;17.50;66.80;;;;;;5037509;28;20442;-59
2023/07/19 01:21:51;;;;;;;2.77;2.20;;;17.50;66.90;;;;;;5036474;28;20466;-59
2023/07/19 01:24:20;;;;;;;5.13;2.83;;;17.50;67.10;;;;;;5036961;28;20452;-59
2023/07/19 01:26:46;;;;;;;3.90;1.90;;;17.40;67.20;;;;;;5037359;28;20446;-59
2023/07/19 01:29:13;;;;;;;5.20;2.40;;;17.40;67.40;;;;;;5037186;28;20441;-59
2023/07/19 01:31:40;;;;;;;2.53;2.10;;;17.40;67.60;;;;;;5036732;28;20469;-59
2023/07/19 01:34:07;;;;;;;3.43;2.27;;;17.30;68.40;;;;;;5036695;28;20452;-59
2023/07/19 01:36:34;;;;;;;4.60;2.10;;;17.30;67.90;;;;;;5035931;28;20498;-59
2023/07/19 01:39:01;;;;;;;4.83;2.53;;;17.30;68.10;;;;;;5035358;28;20443;-59
2023/07/19 01:41:29;;;;;;;2.73;2.03;;;17.30;68.20;;;;;;5035649;28;20892;-59
2023/07/19 01:43:56;;;;;;;6.33;3.53;;;17.30;68.40;;;;;;5035780;28;20971;-59
2023/07/19 01:46:22;;;;;;;3.37;3.03;;;17.30;68.50;;;;;;5036329;28;20825;-59
2023/07/19 01:48:49;;;;;;;3.30;2.70;;;17.30;68.60;;;;;;5035720;28;20914;-58
2023/07/19 01:51:16;;;;;;;4.10;2.37;;;17.30;68.70;;;;;;5035598;28;20818;-59
2023/07/19 01:53:43;;;;;;;3.93;2.10;;;17.30;68.80;;;;;;5035543;28;20436;-59
2023/07/19 01:56:10;;;;;;;2.93;2.00;;;17.30;68.90;;;;;;5035799;28;20547;-59
2023/07/19 01:58:38;;;;;;;3.50;1.80;;;17.30;68.90;;;;;;5035271;28;20490;-59
2023/07/19 02:01:04;;;;;;;4.53;2.03;;;17.40;69.00;;;;;;5035185;28;20945;-59
2023/07/19 02:03:31;;;;;;;3.00;2.43;;;17.30;68.90;;;;;;5035432;28;20451;-59
2023/07/19 02:05:59;;;;;;;3.00;2.27;;;17.40;69.00;;;;;;5035783;28;20442;-59
2023/07/19 02:08:26;;;;;;;9.33;4.20;;;17.40;69.10;;;;;;5035794;28;20805;-59
2023/07/19 02:10:54;;;;;;;5.87;2.77;;;17.40;69.20;;;;;;5036191;28;20443;-59
2023/07/19 02:13:20;;;;;;;3.60;2.57;;;17.40;69.20;;;;;;5035754;28;20471;-58
2023/07/19 02:15:48;;;;;;;3.23;2.50;;;17.30;69.30;;;;;;5035662;28;20459;-59
2023/07/19 02:18:16;;;;;;;3.37;2.97;;;17.40;69.50;;;;;;5035332;28;20483;-58
2023/07/19 02:20:46;;;;;;;4.50;2.20;;;17.30;69.70;;;;;;5035223;28;20600;-58
2023/07/19 02:23:14;;;;;;;4.00;2.83;;;17.30;70.00;;;;;;5035088;28;20987;-58
2023/07/19 02:25:41;;;;;;;3.27;2.33;;;17.30;70.60;;;;;;5035237;28;20452;-58
2023/07/19 02:28:09;;;;;;;4.33;2.83;;;17.30;71.50;;;;;;5036018;28;20511;-58
2023/07/19 02:30:36;;;;;;;3.67;2.60;;;17.30;72.50;;;;;;5035233;28;20441;-58
2023/07/19 02:33:04;;;;;;;4.87;3.37;;;17.30;73.50;;;;;;5035422;28;20457;-58
2023/07/19 02:35:30;;;;;;;5.40;2.43;;;17.30;74.30;;;;;;5035593;28;20448;-59
2023/07/19 02:37:57;;;;;;;4.83;2.80;;;17.20;75.10;;;;;;5035712;28;20483;-58
2023/07/19 02:40:24;;;;;;;6.00;4.07;;;17.20;76.00;;;;;;5034933;28;21007;-59
2023/07/19 02:42:51;;;;;;;3.20;2.40;;;17.20;77.00;;;;;;5035144;28;20462;-58
2023/07/19 02:45:18;;;;;;;4.70;2.80;;;17.20;77.90;;;;;;5035070;28;20457;-58
2023/07/19 02:47:44;;;;;;;4.80;2.63;;;17.20;79.00;;;;;;5035175;28;20484;-58
2023/07/19 02:50:12;;;;;;;3.50;2.30;;;17.10;80.10;;;;;;5035110;28;20458;-58
2023/07/19 02:52:39;;;;;;;6.23;3.23;;;17.10;82.20;;;;;;5034490;28;20490;-59
2023/07/19 02:55:06;;;;;;;3.00;2.70;;;17.10;83.90;;;;;;5034845;28;20444;-59
2023/07/19 02:57:33;;;;;;;4.83;2.63;;;17.10;86.00;;;;;;5034321;28;20482;-59
2023/07/19 03:00:00;;;;;;;5.50;2.53;;;17.10;88.40;;;;;;5034303;28;20459;-59
2023/07/19 03:02:27;;;;;;;4.07;2.70;;;17.10;90.10;;;;;;5034348;28;20473;-58
2023/07/19 03:04:53;;;;;;;3.10;2.80;;;17.10;90.90;;;;;;5035356;28;20443;-59
2023/07/19 03:07:22;;;;;;;7.20;2.93;;;17.00;91.50;;;;;;5034507;28;20443;-59
2023/07/19 03:09:48;;;;;;;6.20;2.90;;;17.00;92.10;;;;;;5034260;28;20450;-59
2023/07/19 03:12:15;;;;;;;14.70;4.30;;;17.00;92.50;;;;;;5035292;28;20467;-59
2023/07/19 03:14:42;;;;;;;4.47;3.10;;;17.00;92.80;;;;;;5034153;28;20544;-59
2023/07/19 03:17:09;;;;;;;2.63;2.20;;;17.00;92.90;;;;;;5034179;28;20439;-59
2023/07/19 03:19:36;;;;;;;3.20;2.90;;;16.90;92.90;;;;;;5034145;28;20526;-58
2023/07/19 03:22:03;;;;;;;3.03;2.73;;;16.90;92.90;;;;;;5033860;28;20466;-58
2023/07/19 03:24:32;;;;;;;3.17;2.40;;;16.90;93.00;;;;;;5033924;28;20952;-58
2023/07/19 03:26:59;;;;;;;3.90;2.70;;;16.90;93.00;;;;;;5033714;28;20451;-59
2023/07/19 03:29:25;;;;;;;3.87;3.00;;;16.80;93.10;;;;;;5033816;28;20452;-59
2023/07/19 03:31:52;;;;;;;4.13;3.73;;;16.80;93.20;;;;;;5033466;28;20461;-59
2023/07/19 03:34:19;;;;;;;3.57;2.87;;;16.80;93.30;;;;;;5034289;28;20454;-58
2023/07/19 03:36:46;;;;;;;5.30;2.77;;;16.70;93.50;;;;;;5034197;28;20448;-59
2023/07/19 03:39:13;;;;;;;4.23;3.40;;;16.70;93.80;;;;;;5033714;28;21004;-59
2023/07/19 03:41:41;;;;;;;3.33;2.50;;;16.70;94.10;;;;;;5033729;28;20504;-58
2023/07/19 03:44:08;;;;;;;3.17;2.60;;;16.70;94.40;;;;;;5033709;28;20445;-57
2023/07/19 03:46:35;;;;;;;3.93;2.80;;;16.70;94.70;;;;;;5033779;28;20446;-59
2023/07/19 03:49:01;;;;;;;2.83;2.53;;;16.70;94.90;;;;;;5033880;28;20444;-60
2023/07/19 03:51:28;;;;;;;6.80;2.70;;;16.70;95.00;;;;;;5033832;28;20478;-59
2023/07/19 03:53:55;;;;;;;3.50;2.80;;;16.70;95.10;;;;;;5033445;28;20441;-59
2023/07/19 03:56:22;;;;;;;4.80;2.70;;;16.80;95.20;;;;;;5033691;28;20470;-59
2023/07/19 03:58:50;;;;;;;4.07;2.80;;;16.80;95.20;;;;;;5033918;28;20481;-58
2023/07/19 04:01:17;;;;;;;3.20;2.63;;;16.80;95.30;;;;;;5040510;28;20453;-58
2023/07/19 04:03:44;;;;;;;4.53;2.87;;;16.80;95.40;;;;;;5049140;28;20448;-59
2023/07/19 04:06:11;;;;;;;5.90;2.20;;;16.90;95.50;;;;;;5036591;28;20445;-59
2023/07/19 04:11:58;;;;;;;7.03;2.80;;;16.90;95.50;;;;;;5091320;28;20970;-58
2023/07/19 04:14:25;;;;;;;3.70;3.07;;;17.00;95.70;;;;;;5091032;28;20657;-58
2023/07/19 04:16:52;;;;;;;2.93;2.60;;;17.00;95.70;;;;;;5091034;28;20447;-59
2023/07/19 04:19:18;;;;;;;3.50;2.83;;;17.00;95.80;;;;;;5091040;28;20448;-59
2023/07/19 04:21:45;;;;;;;3.30;3.00;;;17.10;96.00;;;;;;5090526;28;20465;-59
2023/07/19 04:24:12;;;;;;;4.17;3.30;;;17.10;96.00;;;;;;5090532;28;20450;-57
2023/07/19 04:26:39;;;;;;;2.83;2.53;;;17.20;96.10;;;;;;5091149;28;20543;-59
2023/07/19 04:29:07;;;;;;;3.20;2.90;;;17.20;96.00;;;;;;5090360;28;20440;-59
2023/07/19 04:31:34;;;;;;;4.23;2.93;;;17.20;95.70;;;;;;5090437;28;20484;-60
2023/07/19 04:34:00;;;;;;;3.00;2.30;;;17.30;95.50;;;;;;5091149;28;20444;-59
2023/07/19 04:36:27;;;;;;;3.53;3.23;;;17.40;95.30;;;;;;5091162;28;20442;-59
2023/07/19 04:38:54;;;;;;;5.20;2.97;;;17.40;95.20;;;;;;5092710;28;20447;-59
2023/07/19 04:41:21;;;;;;;3.60;2.77;;;17.40;95.20;;;;;;5092722;28;20448;-59
2023/07/19 04:43:48;;;;;;;2.53;2.20;;;17.40;95.20;;;;;;5092551;28;20452;-59
2023/07/19 04:46:18;;;;;;;3.30;2.77;;;17.40;95.40;;;;;;5092568;28;20542;-58
2023/07/19 04:48:45;;;;;;;4.57;2.90;;;17.40;95.80;;;;;;5091725;28;20449;-58
2023/07/19 04:51:11;;;;;;;3.83;2.50;;;17.50;96.10;;;;;;5090485;28;20845;-58
2023/07/19 04:53:38;;;;;;;4.57;2.67;;;17.50;96.20;;;;;;5090589;28;20450;-58
2023/07/19 04:56:05;;;;;;;3.57;2.60;;;17.60;96.10;;;;;;5090504;28;20437;-58
2023/07/19 04:58:32;;;;;;;3.77;2.23;;;17.70;95.90;;;;;;5090362;28;20448;-59
2023/07/19 05:01:03;;;;;;;3.10;2.80;;;17.70;95.60;;;;;;5090163;28;20456;-58
2023/07/19 05:03:32;;;;;;;5.20;2.70;;;17.70;95.40;;;;;;5090338;28;20490;-58
2023/07/19 05:05:58;;;;;;;4.00;2.00;;;17.80;95.20;;;;;;5090002;28;20528;-59
2023/07/19 05:08:25;;;;;;;3.77;2.80;;;17.80;94.90;;;;;;5090698;28;20472;-59
2023/07/19 05:10:52;;;;;;;5.63;2.80;;;17.90;94.60;;;;;;5090517;28;20491;-58
2023/07/19 05:13:19;;;;;;;3.20;2.40;;;18.00;94.30;;;;;;5089952;28;20464;-58
2023/07/19 05:15:45;;;;;;;3.37;2.87;;;18.10;94.40;;;;;;5089958;28;20441;-59
2023/07/19 05:18:12;;;;;;;4.10;2.87;;;18.20;93.60;;;;;;5090253;28;20446;-59
2023/07/19 05:20:40;;;;;;;3.40;2.50;;;18.50;93.40;;;;;;5090252;28;20442;-58
2023/07/19 05:23:07;;;;;;;3.77;2.17;;;19.00;92.60;;;;;;5077260;28;20477;-58
2023/07/19 05:25:34;;;;;;;4.47;2.60;;;19.30;91.10;;;;;;5076446;28;20451;-59
2023/07/19 05:28:01;;;;;;;3.60;2.80;;;19.50;90.00;;;;;;5076669;28;20443;-58
2023/07/19 05:30:28;;;;;;;2.50;2.30;;;19.60;88.40;;;;;;5076581;28;20481;-59
2023/07/19 05:32:54;;;;;;;4.37;2.87;;;19.60;87.20;;;;;;5076451;28;20463;-59
2023/07/19 05:35:21;;;;;;;3.37;2.30;;;19.60;86.30;;;;;;5076741;28;20827;-58
2023/07/19 05:37:49;;;;;;;2.67;2.30;;;19.50;85.60;;;;;;5076101;28;20831;-58
2023/07/19 05:40:17;;;;;;;3.70;2.40;;;19.50;85.20;;;;;;5076063;28;20440;-59
2023/07/19 05:42:43;;;;;;;3.40;2.17;;;19.30;84.30;;;;;;5076348;28;20830;-58
2023/07/19 05:45:10;;;;;;;2.73;2.47;;;19.20;84.00;;;;;;5076660;28;20447;-58
2023/07/19 05:47:37;;;;;;;5.43;2.63;;;19.00;83.70;;;;;;5076244;28;20447;-58
2023/07/19 05:50:05;;;;;;;6.43;2.60;;;18.90;83.80;;;;;;5075935;28;20450;-58
2023/07/19 05:52:32;;;;;;;3.60;2.37;;;18.80;84.10;;;;;;5075459;28;20471;-59
2023/07/19 05:55:00;;;;;;;4.13;2.80;;;18.80;84.20;;;;;;5076369;28;20537;-59
2023/07/19 05:57:30;;;;;;;4.10;2.47;;;18.80;84.80;;;;;;5076251;28;20511;-59
2023/07/19 05:59:58;;;;;;;4.87;3.43;;;19.00;85.40;;;;;;5075724;28;21032;-58
2023/07/19 06:02:25;;;;;;;5.80;2.60;;;19.50;84.80;;;;;;5075602;28;20466;-58
2023/07/19 06:04:52;;;;;;;3.77;2.50;;;20.10;82.40;;;;;;5075512;28;20458;-58
2023/07/19 06:07:19;;;;;;;6.37;2.70;;;20.70;78.90;;;;;;5075855;28;20451;-58
2023/07/19 06:09:45;;;;;;;4.00;2.80;;;21.00;75.50;;;;;;5075685;28;20483;-58
2023/07/19 06:12:13;;;;;;;4.33;2.10;;;21.30;73.60;;;;;;5075493;28;21004;-57
2023/07/19 06:14:40;;;;;;;3.27;2.97;;;21.40;71.00;;;;;;5075146;28;20444;-58
2023/07/19 06:17:07;;;;;;;2.40;2.03;;;21.50;69.90;;;;;;5076031;28;20449;-60
2023/07/19 06:19:34;;;;;;;3.87;2.60;;;21.50;68.10;;;;;;5074876;28;20454;-58
2023/07/19 06:22:01;;;;;;;3.70;2.47;;;21.40;67.40;;;;;;5075157;28;20477;-57
2023/07/19 06:24:28;;;;;;;3.30;2.47;;;21.30;67.10;;;;;;5074684;28;20521;-58
2023/07/19 06:26:55;;;;;;;2.70;2.20;;;21.30;67.00;;;;;;5074832;28;20447;-58
2023/07/19 06:29:23;;;;;;;3.57;2.57;;;21.20;67.40;;;;;;5075279;28;20454;-57
2023/07/19 06:31:50;;;;;;;4.00;3.17;;;21.20;66.50;;;;;;5075243;28;20497;-58
2023/07/19 06:34:16;;;;;;;4.20;2.50;;;21.20;66.50;;;;;;5074479;28;20440;-57
2023/07/19 06:36:43;;;;;;;3.60;2.57;;;21.20;66.10;;;;;;5075381;28;20454;-59
2023/07/19 06:39:10;;;;;;;7.50;2.60;;;21.20;65.70;;;;;;5074810;28;20446;-56
2023/07/19 06:41:37;;;;;;;5.83;2.70;;;21.20;65.60;;;;;;5074729;28;20527;-57
2023/07/19 06:44:04;;;;;;;2.97;2.57;;;21.20;66.00;;;;;;5074934;28;20828;-58
2023/07/19 06:46:32;;;;;;;2.67;2.47;;;21.20;65.70;;;;;;5074496;28;20968;-57
2023/07/19 06:48:59;;;;;;;3.10;2.47;;;21.30;65.50;;;;;;5075318;28;20439;-58
2023/07/19 06:51:25;;;;;;;3.50;2.20;;;21.40;65.00;;;;;;5074270;28;20591;-58
2023/07/19 06:53:52;;;;;;;5.40;2.57;;;21.50;64.30;;;;;;5074602;28;20908;-57
2023/07/19 06:56:19;;;;;;;4.17;2.80;;;21.50;63.90;;;;;;5075333;28;20446;-58
2023/07/19 06:58:46;;;;;;;5.90;2.50;;;21.50;63.70;;;;;;5075519;28;20456;-57
2023/07/19 07:01:13;;;;;;;3.43;2.60;;;21.60;63.60;;;;;;5075538;28;20450;-56
2023/07/19 07:03:41;;;;;;;5.90;2.20;;;21.60;61.70;;;;;;5076755;28;20443;-58
2023/07/19 07:06:07;;;;;;;3.40;2.30;;;21.60;59.80;;;;;;5075152;28;20530;-58
2023/07/19 07:08:34;;;;;;;7.10;3.30;;;21.70;58.90;;;;;;5074583;28;20450;-58
2023/07/19 07:11:01;;;;;;;7.57;2.90;;;21.70;57.80;;;;;;5074272;28;21015;-58
2023/07/19 07:13:28;;;;;;;5.07;2.63;;;21.90;57.20;;;;;;5075383;28;20469;-57
2023/07/19 07:15:55;;;;;;;3.77;2.70;;;22.00;56.40;;;;;;5074971;28;20444;-58
2023/07/19 07:18:22;;;;;;;2.70;2.20;;;22.20;56.00;;;;;;5074625;28;20446;-57
2023/07/19 07:20:51;;;;;;;2.80;2.40;;;22.40;55.10;;;;;;5074764;28;20466;-58
2023/07/19 07:23:18;;;;;;;2.50;2.00;;;22.50;54.90;;;;;;5073878;28;20981;-56
2023/07/19 07:25:45;;;;;;;3.30;2.27;;;22.50;53.70;;;;;;5073750;28;20461;-57
2023/07/19 07:28:12;;;;;;;3.07;2.00;;;22.60;53.50;;;;;;5073939;28;20444;-57
2023/07/19 07:30:39;;;;;;;4.03;2.27;;;22.50;52.80;;;;;;5073568;28;20448;-58
2023/07/19 07:33:06;;;;;;;2.53;2.03;;;22.50;52.40;;;;;;5073629;28;20468;-58
2023/07/19 07:35:33;;;;;;;4.10;1.90;;;22.50;52.10;;;;;;5073660;28;20451;-58
2023/07/19 07:38:01;;;;;;;6.43;1.87;;;22.40;51.40;;;;;;5074179;28;20439;-58
2023/07/19 07:40:28;;;;;;;3.70;2.03;;;22.40;51.40;;;;;;5074543;28;20501;-57
2023/07/19 07:42:55;;;;;;;5.87;2.10;;;22.30;51.30;;;;;;5074331;28;20460;-57
2023/07/19 07:45:22;;;;;;;4.97;2.47;;;22.40;51.40;;;;;;5074244;28;20444;-58
2023/07/19 07:47:49;;;;;;;2.07;1.87;;;22.50;51.40;;;;;;5073939;28;20450;-58
2023/07/19 07:50:19;;;;;;;1.97;1.60;;;22.50;51.10;;;;;;5073363;28;20448;-58
2023/07/19 07:52:46;;;;;;;3.60;2.20;;;22.50;50.70;;;;;;5074637;28;20570;-58
2023/07/19 07:55:14;;;;;;;6.33;2.00;;;22.40;50.30;;;;;;5074172;28;20452;-58
2023/07/19 07:57:41;;;;;;;2.70;1.97;;;22.30;50.50;;;;;;5074153;28;20466;-58
2023/07/19 08:00:10;;;;;;;3.45;2.13;;;22.20;50.50;;;;;;5074373;28;20456;-59
2023/07/19 08:02:37;;;;;;;5.00;1.60;;;22.20;50.80;;;;;;5074007;28;20690;-57
2023/07/19 08:05:04;;;;;;;2.50;2.10;;;22.10;50.90;;;;;;5073487;28;20829;-58
2023/07/19 08:07:31;;;;;;;2.60;1.70;;;22.10;51.20;;;;;;5074051;28;20463;-58
2023/07/19 08:09:58;;;;;;;2.67;1.83;;;22.10;51.90;;;;;;5073714;28;20456;-59
2023/07/19 08:12:26;;;;;;;3.47;2.00;;;22.00;52.40;;;;;;5073561;28;21067;-59
2023/07/19 08:14:53;;;;;;;2.70;2.23;;;22.00;52.70;;;;;;5073993;28;20444;-58
2023/07/19 08:17:20;;;;;;;3.90;2.30;;;22.20;52.60;;;;;;5073357;28;20525;-60
2023/07/19 08:19:46;;;;;;;3.70;2.40;;;22.30;52.40;;;;;;5074194;28;20457;-59
2023/07/19 08:22:25;;;;;;;3.63;2.40;;;22.50;52.20;;;;;;5074189;28;20470;-57
2023/07/19 08:24:52;;;;;;;3.80;1.97;;;22.70;51.90;;;;;;5074781;28;20905;-58
2023/07/19 08:27:19;;;;;;;3.70;2.10;;;22.80;51.60;;;;;;5073280;28;20534;-58
2023/07/19 08:29:47;;;;;;;4.73;2.37;;;22.80;51.40;;;;;;5073473;28;20447;-59
2023/07/19 08:32:14;;;;;;;3.00;2.37;;;22.90;51.50;;;;;;5073170;28;20487;-58
2023/07/19 08:34:41;;;;;;;2.20;2.00;;;23.20;51.50;;;;;;5073539;28;20967;-59
2023/07/19 08:37:07;;;;;;;5.27;2.63;;;23.30;51.30;;;;;;5073776;28;20448;-58
2023/07/19 08:39:34;;;;;;;6.67;2.30;;;23.40;51.10;;;;;;5073789;28;20444;-58
2023/07/19 08:42:03;;;;;;;2.63;2.20;;;23.40;51.00;;;;;;5074043;28;20837;-59
2023/07/19 08:44:30;;;;;;;2.83;2.30;;;23.50;51.20;;;;;;5073780;28;20961;-58
2023/07/19 08:46:58;;;;;;;4.70;3.00;;;23.70;51.00;;;;;;5074888;28;20797;-58
2023/07/19 08:49:25;;;;;;;3.57;2.57;;;23.80;50.90;;;;;;5073346;28;20516;-58
2023/07/19 08:51:52;;;;;;;4.23;2.50;;;23.80;50.80;;;;;;5073540;28;20525;-56
2023/07/19 08:54:19;;;;;;;3.40;2.50;;;23.70;51.00;;;;;;5074358;28;20447;-59
2023/07/19 08:56:46;;;;;;;3.57;2.53;;;23.50;51.30;;;;;;5074290;28;20462;-59
2023/07/19 08:59:13;;;;;;;3.97;2.73;;;23.40;51.70;;;;;;5077359;28;20444;-59
2023/07/19 09:01:40;;;;;;;8.70;2.90;;;23.40;51.90;;;;;;5077335;28;20550;-59
2023/07/19 09:04:10;;;;;;;3.60;2.53;;;23.30;52.00;;;;;;5078045;28;20449;-58
2023/07/19 09:06:37;;;;;;;3.40;2.80;;;23.10;52.10;;;;;;5078232;28;20432;-58
2023/07/19 09:09:04;;;;;;;4.77;2.80;;;22.90;52.70;;;;;;5077741;28;20463;-57
2023/07/19 09:11:31;;;;;;;5.50;2.80;;;22.90;53.10;;;;;;5078656;28;20483;-59
2023/07/19 09:13:59;;;;;;;5.60;2.87;;;22.90;53.30;;;;;;5077620;28;20532;-58
2023/07/19 09:16:27;;;;;;;3.70;3.03;;;23.00;53.40;;;;;;5077621;28;20456;-59
2023/07/19 09:18:54;;;;;;;3.60;2.43;;;23.10;53.70;;;;;;5077538;28;20451;-59
2023/07/19 09:21:33;;;;;;;5.13;2.90;;;23.20;53.70;;;;;;5077444;28;20444;-58
2023/07/19 09:24:03;;;;;;;5.03;2.30;;;23.30;53.50;;;;;;5077851;28;20801;-58
2023/07/19 09:26:43;;;;;;;2.80;2.50;;;23.50;53.20;;;;;;5077582;28;20450;-60
2023/07/19 09:29:11;;;;;;;6.17;2.67;;;23.60;53.00;;;;;;5077825;28;20438;-59
2023/07/19 09:31:53;;;;;;;5.23;2.47;;;23.70;52.90;;;;;;5077291;28;20524;-58
2023/07/19 09:34:21;;;;;;;6.30;3.00;;;23.80;52.70;;;;;;5077543;28;20436;-60
2023/07/19 09:36:51;;;;;;;3.57;2.20;;;23.90;52.70;;;;;;5076881;28;20877;-58
2023/07/19 09:39:18;;;;;;;3.43;2.90;;;24.00;52.40;;;;;;5077233;28;20454;-58
2023/07/19 09:41:46;;;;;;;3.57;2.10;;;24.20;52.20;;;;;;5077543;28;20479;-59
2023/07/19 09:44:15;;;;;;;3.63;1.90;;;24.40;51.90;;;;;;5077575;28;20454;-57
2023/07/19 09:46:44;;;;;;;3.00;2.00;;;24.40;51.00;;;;;;5077111;28;20498;-59
2023/07/19 09:49:11;;;;;;;3.83;2.20;;;24.40;50.60;;;;;;5077020;28;20444;-59
2023/07/19 09:51:40;;;;;;;4.57;1.80;;;24.30;50.50;;;;;;5076586;28;20483;-59
2023/07/19 09:54:10;;;;;;;6.10;2.30;;;24.20;50.30;;;;;;5076554;28;20451;-59
2023/07/19 09:56:38;;;;;;;3.93;1.90;;;24.20;50.00;;;;;;5076830;28;20447;-60
2023/07/19 09:59:08;;;;;;;2.80;1.93;;;24.20;50.00;;;;;;5076541;28;20479;-60
2023/07/19 10:01:35;;;;;;;6.03;2.30;;;24.30;50.00;;;;;;5076200;28;20870;-61
2023/07/19 10:04:20;;;;;;;6.70;2.00;;;24.40;50.00;;;;;;5077057;28;20543;-60
2023/07/19 10:06:48;;;;;;;2.60;1.70;;;24.40;50.00;;;;;;5077147;28;20452;-60
2023/07/19 10:09:36;;;;;;;5.13;3.10;;;24.40;49.30;;;;;;5075982;28;20452;-59
2023/07/19 10:12:07;;;;;;;4.97;2.03;;;24.30;49.00;;;;;;5076146;28;20493;-60
2023/07/19 10:14:34;;;;;;;3.73;2.10;;;24.30;48.80;;;;;;5075957;28;20496;-60
2023/07/19 10:17:03;;;;;;;3.60;1.80;;;24.20;48.80;;;;;;5076108;28;20497;-60
2023/07/19 10:19:30;;;;;;;2.80;2.10;;;24.10;48.30;;;;;;5077102;28;20447;-59
2023/07/19 10:22:04;;;;;;;3.50;1.90;;;24.10;48.00;;;;;;5080291;28;20467;-59
2023/07/19 10:24:32;;;;;;;5.53;2.37;;;24.10;47.50;;;;;;5079393;28;20446;-59
2023/07/19 10:27:05;;;;;;;3.27;1.90;;;24.30;47.60;;;;;;5078540;28;20444;-60
2023/07/19 10:29:42;;;;;;;2.20;1.60;;;24.50;47.30;;;;;;5077874;28;20532;-60
2023/07/19 10:32:09;;;;;;;5.10;1.87;;;24.90;46.90;;;;;;5077007;28;20550;-60
2023/07/19 10:34:36;;;;;;;5.60;1.67;;;25.30;45.90;;;;;;5077206;28;20448;-61
2023/07/19 10:37:04;;;;;;;4.13;1.90;;;25.40;45.40;;;;;;5076476;28;20796;-60
2023/07/19 10:39:31;;;;;;;3.70;2.03;;;25.50;45.30;;;;;;5076779;28;20443;-60
2023/07/19 10:41:59;;;;;;;2.47;1.80;;;25.40;45.10;;;;;;5076185;28;20498;-60
2023/07/19 10:44:27;;;;;;;4.90;2.37;;;25.30;45.50;;;;;;5076620;28;20972;-60
2023/07/19 10:46:55;;;;;;;4.53;2.17;;;25.20;45.60;;;;;;5076123;28;20534;-61
2023/07/19 10:49:23;;;;;;;4.03;2.30;;;25.10;45.80;;;;;;5076618;28;20444;-60
2023/07/19 10:51:54;;;;;;;3.30;1.97;;;24.90;46.40;;;;;;5075374;28;20474;-61
2023/07/19 10:54:21;;;;;;;3.70;2.20;;;24.60;46.70;;;;;;5074854;28;20925;-60
2023/07/19 10:56:49;;;;;;;4.50;2.07;;;24.50;47.00;;;;;;5075073;28;20458;-60
2023/07/19 10:59:16;;;;;;;1.90;1.60;;;24.50;46.70;;;;;;5074912;28;20565;-60
2023/07/19 11:01:45;;;;;;;3.00;1.90;;;24.50;46.80;;;;;;5074643;28;20463;-60
2023/07/19 11:04:12;;;;;;;4.10;1.97;;;24.60;46.50;;;;;;5074215;28;20444;-58
2023/07/19 11:06:53;;;;;;;3.63;2.00;;;24.60;46.20;;;;;;5075090;28;20443;-60
2023/07/19 11:09:22;;;;;;;3.50;2.00;;;24.70;45.90;;;;;;5075464;28;20908;-60
2023/07/19 11:11:49;;;;;;;5.30;1.90;;;24.90;45.80;;;;;;5076747;28;20542;-60
2023/07/19 11:14:28;;;;;;;2.97;2.20;;;25.10;45.70;;;;;;5078034;28;20446;-59
2023/07/19 11:16:57;;;;;;;2.30;2.10;;;25.10;45.50;;;;;;5075189;28;20439;-60
2023/07/19 11:19:37;;;;;;;3.40;2.00;;;25.10;45.20;;;;;;5074652;28;20447;-60
2023/07/19 11:22:04;;;;;;;3.77;1.80;;;24.90;45.10;;;;;;5075164;28;20896;-61
2023/07/19 11:24:35;;;;;;;1.90;1.57;;;25.00;45.30;;;;;;5074957;28;20443;-58
2023/07/19 11:27:02;;;;;;;3.67;1.60;;;25.20;45.10;;;;;;5075146;28;20443;-60
2023/07/19 11:29:33;;;;;;;3.50;1.70;;;25.60;44.50;;;;;;5074410;28;20440;-58
2023/07/19 11:32:20;;;;;;;2.50;1.60;;;25.90;43.60;;;;;;5074276;28;20468;-60
2023/07/19 11:34:49;;;;;;;2.43;1.80;;;26.20;42.90;;;;;;5074334;28;20432;-59
2023/07/19 11:37:24;;;;;;;5.53;2.00;;;26.50;42.50;;;;;;5074415;28;20965;-58
2023/07/19 11:39:53;;;;;;;4.00;1.97;;;26.70;42.00;;;;;;5074282;28;20427;-59
2023/07/19 11:42:42;;;;;;;2.80;1.70;;;26.90;41.20;;;;;;5074288;28;20779;-60
2023/07/19 11:45:10;;;;;;;3.17;1.70;;;26.90;41.20;;;;;;5073987;28;20819;-60
2023/07/19 11:47:38;;;;;;;4.83;1.73;;;26.90;41.20;;;;;;5074434;28;20557;-58
2023/07/19 11:50:06;;;;;;;1.53;1.43;;;26.80;41.30;;;;;;5075160;28;20450;-60
2023/07/19 11:52:47;;;;;;;2.60;1.53;;;26.60;41.70;;;;;;5075325;28;20490;-59
2023/07/19 11:55:15;;;;;;;2.03;1.60;;;26.40;41.80;;;;;;5075788;28;20436;-61
2023/07/19 11:57:43;;;;;;;2.43;2.17;;;26.10;42.20;;;;;;5075331;28;20452;-60
2023/07/19 12:00:14;;;;;;;2.90;1.73;;;25.90;42.70;;;;;;5075211;28;20618;-59
2023/07/19 12:02:44;;;;;;;2.00;1.37;;;25.80;42.90;;;;;;5074362;28;20837;-58
2023/07/19 12:05:13;;;;;;;2.13;1.30;;;26.00;43.20;;;;;;5075192;28;20465;-60
2023/07/19 12:07:40;;;;;;;3.47;1.53;;;26.00;42.40;;;;;;5074141;28;20479;-60
2023/07/19 12:10:08;;;;;;;2.40;1.37;;;25.90;42.50;;;;;;5074326;28;20459;-61
2023/07/19 12:12:36;;;;;;;5.00;1.80;;;26.00;42.70;;;;;;5074211;28;20479;-61
2023/07/19 12:15:06;;;;;;;2.70;1.73;;;26.00;42.60;;;;;;5074102;28;20439;-60
2023/07/19 12:17:33;;;;;;;2.93;1.70;;;26.20;42.30;;;;;;5074459;28;20527;-59
2023/07/19 12:20:02;;;;;;;3.50;1.50;;;27.00;41.70;;;;;;5074357;28;20469;-59
2023/07/19 12:22:29;;;;;;;3.90;1.90;;;28.10;40.20;;;;;;5074664;28;20989;-59
2023/07/19 12:24:58;;;;;;;2.33;1.47;;;29.00;39.00;;;;;;5074177;28;20461;-59
2023/07/19 12:27:26;;;;;;;7.57;1.73;;;29.10;38.30;;;;;;5074521;28;20448;-60
2023/07/19 12:29:53;;;;;;;3.30;1.63;;;28.90;38.20;;;;;;5074763;28;20447;-59
2023/07/19 12:32:20;;;;;;;2.73;1.63;;;28.70;38.30;;;;;;5076225;28;20463;-59
2023/07/19 12:34:47;;;;;;;2.40;1.50;;;28.40;38.80;;;;;;5078097;28;20443;-60
2023/07/19 12:37:15;;;;;;;2.37;1.70;;;27.80;39.60;;;;;;5078860;28;20875;-60
2023/07/19 12:39:42;;;;;;;2.23;1.70;;;27.20;40.60;;;;;;5078882;28;20442;-60
2023/07/19 12:42:09;;;;;;;3.43;1.60;;;26.50;41.70;;;;;;5078662;28;20467;-61
2023/07/19 12:44:36;;;;;;;4.87;1.97;;;26.30;42.60;;;;;;5078057;28;20447;-60
2023/07/19 12:47:04;;;;;;;2.80;1.53;;;26.20;42.90;;;;;;5078242;28;20455;-61
2023/07/19 12:49:32;;;;;;;2.27;1.60;;;26.10;43.10;;;;;;5078626;28;20550;-60
2023/07/19 12:52:00;;;;;;;2.23;1.70;;;26.00;43.40;;;;;;5077820;28;21002;-60
2023/07/19 12:54:28;;;;;;;4.83;1.83;;;25.90;43.60;;;;;;5077843;28;20479;-60